Terminal Aerodrome Forecast
Issued by NWS

Home | Current Version | Previous Version | Text Only | Print | Product List | Glossary On
Versions: 1 2 3 4 5 6 7 8 9 10 11 12 13 14 15 16 17 18 19 20 21 22 23
000
FTUS44 KHGX 260520
TAFLBX
TAF
KLBX 260520Z 2606/2706 34004KT P6SM SKC
      TEMPO 2611/2613 4SM BR
     FM261500 01006KT P6SM SCT035 BKN250
     FM262000 02008KT P6SM VCTS BKN040CB BKN200
     FM270300 36006KT P6SM BKN050=

USA.gov is the U.S. government's official web portal to all federal, state and local government web resources and services.